Time;durP1;ratioP1;P1;durP2;ratioP2;P2;SDS_P1;SDS_P2;PMS_P1;PMS_P2;Temp;Humidity;BMP_temperature;BMP_pressure;BME280_temperature;BME280_humidity;BME280_pressure;Samples;Min_cycle;Max_cycle;Signal;HPM_P1;HPM_P2
2023/07/15 00:01:02;;;;;;;8.40;4.53;;;18.50;81.90;;;;;;5044216;28;20051;-68
2023/07/15 00:03:28;;;;;;;8.20;3.95;;;18.50;81.50;;;;;;5047300;28;20049;-68
2023/07/15 00:05:53;;;;;;;4.95;4.03;;;18.50;81.10;;;;;;5049485;28;20490;-67
2023/07/15 00:08:19;;;;;;;6.28;4.00;;;18.50;81.40;;;;;;5049012;28;20093;-68
2023/07/15 00:10:46;;;;;;;7.65;3.83;;;18.50;80.30;;;;;;5050026;28;20033;-68
2023/07/15 00:13:14;;;;;;;6.07;3.70;;;18.50;79.70;;;;;;5049687;28;20037;-68
2023/07/15 00:15:41;;;;;;;6.45;3.60;;;18.50;79.40;;;;;;5024718;28;20166;-68
2023/07/15 00:18:09;;;;;;;6.50;4.38;;;18.50;79.20;;;;;;5036438;28;20057;-68
2023/07/15 00:20:35;;;;;;;9.07;3.65;;;18.40;79.00;;;;;;5037663;28;20150;-68
2023/07/15 00:23:01;;;;;;;6.20;4.25;;;18.40;78.80;;;;;;5037393;28;20029;-69
2023/07/15 00:25:27;;;;;;;6.43;3.63;;;18.40;78.60;;;;;;5037477;28;20043;-68
2023/07/15 00:27:53;;;;;;;9.10;4.03;;;18.40;78.50;;;;;;5035401;28;20640;-67
2023/07/15 00:30:21;;;;;;;7.72;3.95;;;18.40;79.10;;;;;;5035801;28;20033;-68
2023/07/15 00:32:49;;;;;;;7.72;3.90;;;18.40;78.00;;;;;;5033330;28;20040;-68
2023/07/15 00:35:28;;;;;;;6.65;3.80;;;18.40;77.70;;;;;;5035394;28;20370;-68
2023/07/15 00:37:58;;;;;;;6.75;4.20;;;18.40;77.30;;;;;;5034803;28;20879;-67
2023/07/15 00:40:25;;;;;;;5.82;3.65;;;18.40;76.90;;;;;;5037268;28;20056;-68
2023/07/15 00:43:10;;;;;;;5.72;3.83;;;18.40;76.70;;;;;;5032260;28;20128;-68
2023/07/15 00:45:35;;;;;;;7.63;3.72;;;18.40;76.50;;;;;;5031785;28;20132;-68
2023/07/15 00:48:16;;;;;;;5.13;3.30;;;18.40;76.40;;;;;;5038549;28;20147;-70
2023/07/15 00:50:42;;;;;;;6.07;3.83;;;18.40;75.80;;;;;;5036005;28;20049;-68
2023/07/15 00:53:09;;;;;;;7.20;3.80;;;18.40;76.20;;;;;;5037490;28;20436;-68
2023/07/15 00:55:36;;;;;;;9.52;3.83;;;18.40;76.00;;;;;;5038181;28;20049;-69
2023/07/15 00:58:03;;;;;;;5.75;3.60;;;18.40;75.90;;;;;;5038520;28;20437;-68
2023/07/15 01:00:30;;;;;;;4.55;3.30;;;18.40;75.90;;;;;;5044683;28;20870;-68
2023/07/15 01:02:56;;;;;;;6.07;4.03;;;18.30;76.10;;;;;;5028050;28;20466;-68
2023/07/15 01:05:21;;;;;;;6.45;3.80;;;18.30;76.00;;;;;;5028460;28;20035;-68
2023/07/15 01:07:47;;;;;;;5.32;3.78;;;18.30;76.00;;;;;;5036926;28;20128;-68
2023/07/15 01:10:13;;;;;;;6.78;3.55;;;18.30;76.00;;;;;;5049481;28;20119;-67
2023/07/15 01:12:38;;;;;;;8.05;3.92;;;18.30;75.80;;;;;;5047390;28;20048;-68
2023/07/15 01:15:05;;;;;;;6.20;3.85;;;18.30;75.70;;;;;;5048776;28;20056;-68
2023/07/15 01:17:30;;;;;;;5.55;3.80;;;18.30;75.50;;;;;;5046460;28;20084;-68
2023/07/15 01:19:56;;;;;;;9.23;4.20;;;18.30;75.50;;;;;;5044999;28;20075;-68
2023/07/15 01:22:22;;;;;;;7.72;3.90;;;18.40;75.30;;;;;;5052800;28;20507;-68
2023/07/15 01:24:47;;;;;;;6.72;3.80;;;18.40;75.10;;;;;;5045008;28;20529;-67
2023/07/15 01:27:14;;;;;;;8.43;3.50;;;18.40;75.00;;;;;;5051013;28;20219;-68
2023/07/15 01:29:40;;;;;;;7.25;3.50;;;18.40;74.90;;;;;;5050943;28;20040;-68
2023/07/15 01:32:05;;;;;;;6.55;4.20;;;18.40;74.90;;;;;;5050900;28;20521;-68
2023/07/15 01:34:31;;;;;;;6.25;3.72;;;18.40;74.90;;;;;;5042597;28;20044;-68
2023/07/15 01:36:58;;;;;;;5.28;3.35;;;18.40;74.70;;;;;;5040027;28;20415;-68
2023/07/15 01:39:23;;;;;;;7.15;3.60;;;18.40;74.40;;;;;;5041100;28;20039;-68
2023/07/15 01:41:49;;;;;;;5.82;3.60;;;18.40;74.20;;;;;;5042409;28;20342;-68
2023/07/15 01:44:15;;;;;;;5.53;3.75;;;18.40;74.10;;;;;;5038291;28;20037;-68
2023/07/15 01:46:41;;;;;;;7.97;3.47;;;18.50;73.90;;;;;;5038707;28;20025;-68
2023/07/15 01:49:07;;;;;;;6.68;3.90;;;18.50;73.70;;;;;;5038696;28;20722;-68
2023/07/15 01:51:35;;;;;;;10.73;3.72;;;18.50;73.50;;;;;;5041655;28;20222;-68
2023/07/15 01:54:01;;;;;;;6.15;3.60;;;18.50;73.30;;;;;;5038193;28;20399;-68
2023/07/15 01:56:26;;;;;;;5.95;3.30;;;18.50;73.10;;;;;;5038921;28;20033;-69
2023/07/15 01:58:52;;;;;;;5.57;3.35;;;18.50;72.90;;;;;;5038556;28;20036;-68
2023/07/15 02:01:18;;;;;;;5.28;2.92;;;18.60;72.80;;;;;;5038029;28;20393;-68
2023/07/15 02:03:45;;;;;;;5.05;3.13;;;18.60;72.80;;;;;;5037658;28;20090;-69
2023/07/15 02:06:10;;;;;;;8.05;3.47;;;18.60;72.60;;;;;;5039549;28;20037;-69
2023/07/15 02:08:36;;;;;;;5.68;3.63;;;18.60;72.20;;;;;;5046505;28;20051;-69
2023/07/15 02:11:02;;;;;;;6.63;3.40;;;18.70;72.10;;;;;;5051120;28;20036;-68
2023/07/15 02:13:28;;;;;;;4.63;3.40;;;18.60;71.90;;;;;;5036770;28;20092;-68
2023/07/15 02:15:53;;;;;;;3.97;2.92;;;18.70;72.60;;;;;;5028261;28;20049;-69
2023/07/15 02:18:21;;;;;;;5.95;3.22;;;18.70;71.60;;;;;;5040537;28;20522;-68
2023/07/15 02:20:49;;;;;;;5.95;3.35;;;18.70;71.60;;;;;;5042190;28;20527;-68
2023/07/15 02:23:15;;;;;;;4.85;3.03;;;18.70;71.50;;;;;;5039224;28;20040;-68
2023/07/15 02:25:41;;;;;;;8.45;3.67;;;18.60;72.40;;;;;;5039466;28;20032;-68
2023/07/15 02:28:06;;;;;;;3.88;3.00;;;18.60;71.70;;;;;;5045154;28;20064;-69
2023/07/15 02:30:32;;;;;;;6.30;3.45;;;18.50;72.00;;;;;;5045338;28;20052;-69
2023/07/15 02:32:58;;;;;;;7.03;3.28;;;18.40;72.10;;;;;;5041918;28;20215;-68
2023/07/15 02:35:23;;;;;;;6.22;3.20;;;18.40;72.30;;;;;;5038851;28;20037;-68
2023/07/15 02:37:49;;;;;;;5.65;2.97;;;18.20;72.40;;;;;;5042129;28;20048;-68
2023/07/15 02:40:16;;;;;;;5.15;3.00;;;18.20;72.70;;;;;;5040908;28;20064;-68
2023/07/15 02:42:42;;;;;;;6.22;2.97;;;18.20;72.50;;;;;;5041601;28;20052;-68
2023/07/15 02:45:10;;;;;;;5.75;3.13;;;18.10;73.20;;;;;;5041931;28;20041;-68
2023/07/15 02:47:39;;;;;;;5.43;3.03;;;18.10;72.30;;;;;;5040540;28;20745;-69
2023/07/15 02:50:07;;;;;;;4.70;2.50;;;18.20;71.80;;;;;;5041613;28;20110;-68
2023/07/15 02:52:34;;;;;;;4.00;2.65;;;18.30;70.90;;;;;;5038697;28;20127;-67
2023/07/15 02:55:04;;;;;;;4.97;2.80;;;18.40;69.70;;;;;;5043347;28;20106;-68
2023/07/15 02:57:31;;;;;;;4.97;2.55;;;18.60;69.10;;;;;;5044563;28;20075;-68
2023/07/15 02:59:56;;;;;;;3.67;2.38;;;18.70;68.30;;;;;;5037832;28;20040;-69
2023/07/15 03:02:23;;;;;;;5.35;2.80;;;18.80;67.60;;;;;;5040749;28;20049;-69
2023/07/15 03:04:49;;;;;;;6.05;2.53;;;18.90;67.00;;;;;;5043755;28;20056;-67
2023/07/15 03:07:16;;;;;;;3.88;2.47;;;18.90;66.40;;;;;;5045679;28;20041;-68
2023/07/15 03:09:42;;;;;;;5.88;2.63;;;19.10;65.80;;;;;;5055436;28;20189;-68
2023/07/15 03:12:09;;;;;;;6.50;3.15;;;19.20;65.30;;;;;;5029345;28;20119;-69
2023/07/15 03:14:35;;;;;;;3.83;2.58;;;19.10;64.90;;;;;;5022075;28;20033;-69
2023/07/15 03:17:01;;;;;;;4.85;2.40;;;19.10;64.90;;;;;;5014608;28;20032;-69
2023/07/15 03:19:26;;;;;;;3.38;2.20;;;19.20;64.70;;;;;;5035216;28;20065;-68
2023/07/15 03:21:52;;;;;;;4.40;2.65;;;19.10;64.70;;;;;;5057137;28;20418;-68
2023/07/15 03:24:18;;;;;;;5.53;2.30;;;19.10;64.90;;;;;;5045867;28;20100;-67
2023/07/15 03:26:44;;;;;;;6.90;3.03;;;19.10;65.00;;;;;;5047311;28;20040;-69
2023/07/15 03:29:10;;;;;;;3.80;2.60;;;19.10;64.90;;;;;;5035682;28;20048;-69
2023/07/15 03:31:36;;;;;;;8.38;2.80;;;19.00;65.10;;;;;;5034937;28;20029;-68
2023/07/15 03:34:02;;;;;;;4.28;2.50;;;19.00;65.00;;;;;;5038357;28;20136;-67
2023/07/15 03:36:28;;;;;;;4.78;2.63;;;19.00;65.10;;;;;;5033085;28;20158;-69
2023/07/15 03:38:53;;;;;;;3.83;2.70;;;18.90;65.20;;;;;;5045216;28;20041;-68
2023/07/15 03:41:19;;;;;;;6.85;2.90;;;18.90;65.20;;;;;;5043568;28;20045;-68
2023/07/15 03:43:45;;;;;;;5.15;2.80;;;18.80;65.20;;;;;;5046754;28;20136;-69
2023/07/15 03:46:12;;;;;;;3.03;2.40;;;18.80;65.30;;;;;;5031607;28;20033;-69
2023/07/15 03:48:38;;;;;;;5.60;3.00;;;18.80;65.30;;;;;;5053920;28;20084;-68
2023/07/15 03:51:04;;;;;;;6.88;2.78;;;18.80;65.10;;;;;;5030940;28;20060;-68
2023/07/15 03:53:30;;;;;;;6.13;2.58;;;18.80;65.20;;;;;;5044876;28;20045;-68
2023/07/15 03:55:55;;;;;;;3.15;2.40;;;18.80;65.30;;;;;;5046204;28;20071;-68
2023/07/15 03:58:21;;;;;;;3.58;2.45;;;18.80;64.70;;;;;;5045766;28;20041;-68
2023/07/15 04:00:46;;;;;;;7.05;3.00;;;18.80;65.00;;;;;;5033396;28;20155;-69
2023/07/15 04:03:12;;;;;;;3.80;2.40;;;18.80;65.30;;;;;;5047648;28;20059;-69
2023/07/15 04:05:38;;;;;;;4.63;2.67;;;18.80;65.10;;;;;;5045582;28;20124;-68
2023/07/15 04:08:04;;;;;;;4.60;2.70;;;18.80;65.30;;;;;;5045583;28;20036;-69
2023/07/15 04:10:29;;;;;;;2.72;2.50;;;18.70;65.40;;;;;;5046730;28;20512;-68
2023/07/15 04:12:55;;;;;;;3.60;2.70;;;18.70;65.50;;;;;;5033833;28;20851;-69
2023/07/15 04:15:20;;;;;;;4.15;2.50;;;18.70;65.50;;;;;;5027596;28;20041;-69
2023/07/15 04:17:46;;;;;;;4.15;2.45;;;18.80;65.40;;;;;;5027948;28;20045;-70
2023/07/15 04:20:14;;;;;;;4.28;2.60;;;18.80;65.40;;;;;;5028950;28;20128;-69
2023/07/15 04:22:40;;;;;;;4.80;2.50;;;18.80;66.10;;;;;;5043948;28;20522;-68
2023/07/15 04:25:06;;;;;;;5.80;2.85;;;18.70;65.40;;;;;;5028649;28;20049;-69
2023/07/15 04:27:32;;;;;;;4.45;2.45;;;18.80;65.50;;;;;;5028498;28;20492;-68
2023/07/15 04:29:58;;;;;;;5.53;2.80;;;18.80;65.30;;;;;;5028250;28;20088;-67
2023/07/15 04:32:23;;;;;;;5.50;2.20;;;18.80;65.30;;;;;;5026463;28;20033;-69
2023/07/15 04:34:52;;;;;;;4.63;2.70;;;18.80;65.40;;;;;;5029597;28;20072;-69
2023/07/15 04:37:17;;;;;;;6.38;2.72;;;18.90;65.40;;;;;;5028516;28;20037;-69
2023/07/15 04:39:43;;;;;;;4.20;2.80;;;18.90;65.20;;;;;;5039942;28;20041;-68
2023/07/15 04:42:09;;;;;;;3.55;2.30;;;19.00;65.20;;;;;;5046625;28;20036;-69
2023/07/15 04:44:35;;;;;;;2.65;2.10;;;19.10;65.00;;;;;;5040261;28;20479;-68
2023/07/15 04:47:01;;;;;;;4.10;2.45;;;19.10;64.90;;;;;;5038687;28;20069;-70
2023/07/15 04:49:26;;;;;;;6.10;2.65;;;19.20;64.70;;;;;;5037433;28;20486;-70
2023/07/15 04:51:52;;;;;;;3.22;2.25;;;19.20;64.40;;;;;;5022310;28;20032;-68
2023/07/15 04:54:18;;;;;;;7.72;2.53;;;19.20;64.30;;;;;;5036608;28;20061;-68
2023/07/15 04:56:44;;;;;;;4.63;2.50;;;19.30;64.60;;;;;;5045650;28;20128;-69
2023/07/15 04:59:10;;;;;;;7.47;3.08;;;19.30;64.40;;;;;;5036452;28;20045;-69
2023/07/15 05:01:36;;;;;;;4.65;2.95;;;19.40;64.40;;;;;;5037241;28;20520;-68
2023/07/15 05:04:02;;;;;;;3.47;2.40;;;19.50;64.10;;;;;;5042480;28;20083;-68
2023/07/15 05:06:31;;;;;;;3.42;2.45;;;19.60;64.10;;;;;;5038459;28;20401;-68
2023/07/15 05:08:57;;;;;;;4.03;2.28;;;19.70;64.00;;;;;;5042970;28;20401;-68
2023/07/15 05:11:26;;;;;;;5.28;2.25;;;19.70;64.00;;;;;;5049106;28;20041;-68
2023/07/15 05:13:52;;;;;;;3.88;2.60;;;19.80;63.70;;;;;;5047270;28;20094;-67
2023/07/15 05:16:17;;;;;;;2.85;2.28;;;19.90;63.90;;;;;;5033174;28;20045;-68
2023/07/15 05:18:43;;;;;;;7.18;3.00;;;20.00;63.90;;;;;;5044761;28;20051;-69
2023/07/15 05:21:09;;;;;;;3.58;2.35;;;20.10;63.60;;;;;;5042605;28;20076;-68
2023/07/15 05:23:35;;;;;;;2.92;2.10;;;20.30;63.50;;;;;;5043729;28;20040;-69
2023/07/15 05:26:01;;;;;;;5.13;2.47;;;20.40;63.40;;;;;;5045304;28;20039;-67
2023/07/15 05:28:30;;;;;;;4.00;2.70;;;20.50;63.20;;;;;;5042380;28;20037;-69
2023/07/15 05:31:03;;;;;;;3.13;2.42;;;20.70;63.20;;;;;;5041230;28;20065;-69
2023/07/15 05:33:29;;;;;;;4.03;2.50;;;20.80;61.50;;;;;;5040058;28;20041;-69
2023/07/15 05:35:55;;;;;;;4.75;2.03;;;20.90;62.70;;;;;;5036415;28;20421;-69
2023/07/15 05:38:25;;;;;;;6.55;2.45;;;21.00;62.40;;;;;;5019623;28;20060;-69
2023/07/15 05:40:52;;;;;;;4.88;2.40;;;21.10;62.10;;;;;;5015098;28;20121;-68
2023/07/15 05:43:19;;;;;;;4.93;2.10;;;21.30;63.10;;;;;;5030621;28;20132;-70
2023/07/15 05:45:47;;;;;;;5.28;2.22;;;21.40;61.80;;;;;;5031484;28;20693;-70
2023/07/15 05:48:13;;;;;;;3.88;2.47;;;21.50;61.70;;;;;;5044089;28;20055;-69
2023/07/15 05:50:39;;;;;;;4.00;2.55;;;21.60;61.50;;;;;;5033445;28;20576;-70
2023/07/15 05:53:05;;;;;;;4.95;2.72;;;21.80;61.50;;;;;;5031258;28;20147;-70
2023/07/15 05:55:33;;;;;;;2.92;2.22;;;21.80;61.10;;;;;;5042999;28;20037;-69
2023/07/15 05:57:59;;;;;;;5.70;2.00;;;21.90;60.80;;;;;;5037214;28;20056;-70
2023/07/15 06:00:24;;;;;;;4.60;2.40;;;22.10;60.50;;;;;;5042776;28;20684;-70
2023/07/15 06:02:50;;;;;;;4.47;2.63;;;22.20;60.30;;;;;;5017829;28;20144;-70
2023/07/15 06:05:16;;;;;;;7.15;2.65;;;22.30;59.30;;;;;;5020614;28;20037;-71
2023/07/15 06:07:42;;;;;;;5.18;2.53;;;22.40;59.40;;;;;;5036778;28;20116;-67
2023/07/15 06:10:07;;;;;;;4.95;2.20;;;22.50;59.10;;;;;;5030275;28;20140;-68
2023/07/15 06:12:33;;;;;;;4.40;2.25;;;22.60;59.00;;;;;;5030547;28;20094;-67
2023/07/15 06:14:59;;;;;;;5.85;2.33;;;22.70;58.80;;;;;;5040284;28;20291;-67
2023/07/15 06:17:24;;;;;;;3.88;2.50;;;22.90;58.80;;;;;;5033509;28;20136;-69
2023/07/15 06:19:50;;;;;;;4.15;2.33;;;23.10;58.10;;;;;;5033344;28;20180;-68
2023/07/15 06:22:16;;;;;;;5.78;2.75;;;23.20;57.70;;;;;;5045663;28;20040;-67
2023/07/15 06:24:41;;;;;;;5.63;2.40;;;23.30;57.60;;;;;;5050048;28;20361;-67
2023/07/15 06:27:07;;;;;;;5.25;2.35;;;23.40;58.20;;;;;;5047664;28;21344;-67
2023/07/15 06:29:32;;;;;;;4.18;2.45;;;23.40;57.20;;;;;;5036402;28;20133;-68
2023/07/15 06:31:58;;;;;;;3.58;2.30;;;23.60;56.90;;;;;;5032350;28;20041;-69
2023/07/15 06:34:24;;;;;;;3.42;2.20;;;23.70;56.60;;;;;;5017056;28;20041;-68
2023/07/15 06:36:50;;;;;;;3.15;2.30;;;23.90;56.40;;;;;;5034373;28;20095;-68
2023/07/15 06:39:15;;;;;;;5.60;2.70;;;24.10;55.90;;;;;;5038180;28;20048;-69
2023/07/15 06:41:41;;;;;;;7.07;2.50;;;24.10;55.90;;;;;;5031862;28;20041;-68
2023/07/15 06:44:06;;;;;;;7.57;2.42;;;24.20;55.30;;;;;;5039949;28;20034;-69
2023/07/15 06:46:32;;;;;;;2.95;2.20;;;24.10;55.70;;;;;;5043666;28;20118;-69
2023/07/15 06:48:57;;;;;;;5.22;2.30;;;24.30;55.20;;;;;;5042846;28;20052;-69
2023/07/15 06:51:23;;;;;;;3.05;2.55;;;24.30;55.60;;;;;;5049770;28;20036;-69
2023/07/15 06:53:49;;;;;;;6.57;2.58;;;24.40;55.60;;;;;;5028970;28;20049;-69
2023/07/15 06:56:14;;;;;;;4.35;2.45;;;24.50;55.10;;;;;;5032931;28;20048;-68
2023/07/15 06:58:40;;;;;;;4.03;2.22;;;24.60;54.70;;;;;;5041142;28;20048;-71
2023/07/15 07:01:06;;;;;;;4.85;2.35;;;24.60;54.50;;;;;;5040187;28;20116;-69
2023/07/15 07:03:33;;;;;;;4.43;2.30;;;24.70;54.00;;;;;;5037347;28;20037;-68
2023/07/15 07:05:58;;;;;;;4.88;2.58;;;24.90;54.40;;;;;;5034144;28;20071;-70
2023/07/15 07:08:24;;;;;;;4.30;1.90;;;25.10;54.50;;;;;;5013125;28;20061;-67
2023/07/15 07:10:51;;;;;;;3.83;2.13;;;25.30;54.50;;;;;;5048394;28;20368;-69
2023/07/15 07:13:16;;;;;;;5.10;1.98;;;25.30;53.20;;;;;;5048625;28;20052;-70
2023/07/15 07:15:42;;;;;;;4.50;2.28;;;25.40;53.80;;;;;;5038005;28;20354;-69
2023/07/15 07:18:07;;;;;;;4.05;2.03;;;25.50;53.80;;;;;;5034071;28;20409;-68
2023/07/15 07:20:33;;;;;;;5.75;2.40;;;25.40;53.80;;;;;;5030759;28;20161;-68
2023/07/15 07:22:58;;;;;;;5.75;2.30;;;25.60;54.00;;;;;;5043539;28;20340;-69
2023/07/15 07:25:24;;;;;;;4.30;2.28;;;26.00;54.10;;;;;;5031449;28;20746;-71
2023/07/15 07:27:49;;;;;;;4.55;2.35;;;26.00;52.70;;;;;;5036989;28;20615;-69
2023/07/15 07:30:16;;;;;;;5.80;2.13;;;26.30;52.50;;;;;;5036816;28;20120;-70
2023/07/15 07:32:42;;;;;;;5.82;2.10;;;26.00;52.30;;;;;;5028448;28;20121;-69
2023/07/15 07:35:08;;;;;;;4.30;2.08;;;26.40;52.40;;;;;;5030364;28;20132;-70
2023/07/15 07:37:33;;;;;;;3.97;2.08;;;26.40;52.10;;;;;;5040281;28;20033;-69
2023/07/15 07:39:59;;;;;;;1.98;1.77;;;26.60;51.80;;;;;;5027127;28;20123;-68
2023/07/15 07:42:24;;;;;;;4.28;1.77;;;26.80;51.50;;;;;;5042038;28;20095;-70
2023/07/15 07:44:50;;;;;;;4.50;2.20;;;26.70;51.70;;;;;;5038579;28;20040;-70
2023/07/15 07:47:15;;;;;;;3.13;1.90;;;26.80;51.40;;;;;;5042198;28;20075;-70
2023/07/15 07:49:41;;;;;;;1.75;1.63;;;26.90;51.50;;;;;;5048659;28;20053;-68
2023/07/15 07:52:07;;;;;;;2.38;1.95;;;26.70;51.70;;;;;;5023014;28;20115;-70
2023/07/15 07:54:33;;;;;;;3.03;1.73;;;26.70;51.50;;;;;;5029837;28;20041;-68
2023/07/15 07:56:58;;;;;;;3.63;1.70;;;26.80;51.60;;;;;;5012809;28;20042;-70
2023/07/15 07:59:24;;;;;;;2.80;1.70;;;26.90;51.70;;;;;;5038701;28;20503;-70
2023/07/15 08:01:50;;;;;;;3.50;1.80;;;26.90;52.00;;;;;;5038222;28;20055;-69
2023/07/15 08:04:16;;;;;;;2.97;1.50;;;27.40;51.90;;;;;;5028023;28;20086;-68
2023/07/15 08:06:41;;;;;;;4.38;1.60;;;27.30;51.50;;;;;;5029481;28;20044;-69
2023/07/15 08:09:07;;;;;;;3.67;1.50;;;27.30;51.30;;;;;;5029308;28;20041;-68
2023/07/15 08:11:32;;;;;;;2.33;1.50;;;27.40;51.10;;;;;;5047919;28;20242;-68
2023/07/15 08:13:58;;;;;;;3.42;1.33;;;27.60;51.00;;;;;;5040539;28;20437;-68
2023/07/15 08:16:34;;;;;;;4.10;1.58;;;27.60;50.80;;;;;;5038083;28;20056;-69
2023/07/15 08:19:00;;;;;;;1.33;1.20;;;27.70;50.30;;;;;;5030265;28;20095;-70
2023/07/15 08:21:27;;;;;;;2.00;1.20;;;27.80;50.40;;;;;;5035918;28;20056;-69
2023/07/15 08:23:53;;;;;;;2.50;1.30;;;28.10;50.30;;;;;;5045345;28;20041;-70
2023/07/15 08:26:20;;;;;;;3.25;1.30;;;28.30;50.10;;;;;;5035775;28;20040;-70
2023/07/15 08:28:45;;;;;;;1.83;1.30;;;28.70;49.90;;;;;;5034097;28;20061;-68
2023/07/15 08:31:11;;;;;;;1.70;1.17;;;29.00;49.10;;;;;;5016766;28;22115;-68
2023/07/15 08:33:36;;;;;;;2.42;1.40;;;28.80;49.00;;;;;;5014744;28;20152;-70
2023/07/15 08:36:02;;;;;;;4.10;1.20;;;29.00;48.30;;;;;;5028716;28;20044;-69
2023/07/15 08:38:28;;;;;;;3.25;1.48;;;29.00;47.60;;;;;;5039712;28;20140;-70
2023/07/15 08:40:59;;;;;;;2.58;1.33;;;29.10;47.90;;;;;;5034508;28;20102;-70
2023/07/15 08:43:24;;;;;;;1.42;1.13;;;29.30;46.70;;;;;;5028501;28;20569;-69
2023/07/15 08:45:53;;;;;;;1.73;1.23;;;29.80;47.40;;;;;;5038393;28;20124;-70
2023/07/15 08:48:18;;;;;;;1.67;1.30;;;29.90;47.00;;;;;;5045203;28;20045;-72
2023/07/15 08:50:45;;;;;;;1.67;1.38;;;30.80;46.10;;;;;;5027196;28;20050;-70
2023/07/15 08:53:14;;;;;;;3.38;1.60;;;31.00;45.50;;;;;;5034942;28;20041;-70
2023/07/15 08:55:40;;;;;;;1.55;1.20;;;30.20;45.40;;;;;;5045624;28;20392;-70
2023/07/15 08:58:07;;;;;;;3.75;1.50;;;30.60;45.60;;;;;;5047420;28;20033;-69
2023/07/15 09:00:32;;;;;;;3.05;1.50;;;31.20;44.60;;;;;;5045370;28;20062;-69
2023/07/15 09:02:58;;;;;;;4.32;1.80;;;31.50;44.00;;;;;;5034664;28;20421;-68
2023/07/15 09:05:23;;;;;;;2.53;1.38;;;31.50;43.40;;;;;;5029882;28;20041;-70
2023/07/15 09:07:57;;;;;;;3.33;1.80;;;31.00;43.40;;;;;;5048561;28;20033;-71
2023/07/15 09:10:23;;;;;;;3.05;1.60;;;30.40;43.50;;;;;;5039905;28;20116;-69
2023/07/15 09:12:54;;;;;;;4.07;1.75;;;30.40;43.90;;;;;;5045545;28;20040;-68
2023/07/15 09:15:20;;;;;;;3.35;1.20;;;30.80;43.70;;;;;;5037037;28;20811;-69
2023/07/15 09:18:01;;;;;;;3.97;1.60;;;30.70;43.40;;;;;;5033260;28;20132;-70
2023/07/15 09:20:27;;;;;;;2.05;1.30;;;31.00;43.30;;;;;;5047763;28;20115;-69
2023/07/15 09:22:58;;;;;;;2.50;1.65;;;30.90;43.60;;;;;;5041512;28;20875;-67
2023/07/15 09:25:25;;;;;;;3.10;1.60;;;30.70;42.90;;;;;;5037728;28;20072;-70
2023/07/15 09:27:51;;;;;;;5.20;1.58;;;29.70;44.30;;;;;;5036805;28;20534;-71
2023/07/15 09:30:18;;;;;;;2.22;1.50;;;30.60;44.10;;;;;;5049145;28;20369;-70
2023/07/15 09:32:44;;;;;;;3.90;1.90;;;31.10;43.00;;;;;;5033930;28;20087;-70
2023/07/15 09:35:10;;;;;;;1.67;1.38;;;30.90;42.50;;;;;;5046524;28;20493;-70
2023/07/15 09:37:35;;;;;;;3.83;1.58;;;30.50;43.00;;;;;;5042613;28;20041;-67
2023/07/15 09:40:07;;;;;;;5.43;1.60;;;29.90;43.50;;;;;;5033773;28;20029;-70
2023/07/15 09:42:52;;;;;;;1.70;1.60;;;30.50;43.40;;;;;;5023841;28;20421;-66
2023/07/15 09:45:38;;;;;;;2.75;1.27;;;30.20;43.20;;;;;;5042108;28;20556;-72
2023/07/15 09:48:09;;;;;;;3.08;1.17;;;29.20;42.90;;;;;;5032314;28;20040;-69
2023/07/15 09:50:36;;;;;;;2.80;1.60;;;29.50;44.40;;;;;;5047147;28;20547;-69
2023/07/15 09:53:02;;;;;;;3.28;1.50;;;29.30;44.50;;;;;;5043754;28;20049;-68
2023/07/15 09:55:29;;;;;;;2.28;1.50;;;28.90;45.00;;;;;;5039651;28;20060;-69
2023/07/15 09:58:24;;;;;;;2.58;1.50;;;28.80;45.40;;;;;;5038509;28;20495;-69
2023/07/15 10:01:06;;;;;;;2.58;1.63;;;28.60;46.60;;;;;;5033094;28;20135;-69
2023/07/15 10:03:43;;;;;;;2.95;1.45;;;29.10;45.60;;;;;;5040039;28;20047;-69
2023/07/15 10:06:10;;;;;;;2.70;1.35;;;30.10;44.50;;;;;;5050331;28;20424;-69
2023/07/15 10:08:37;;;;;;;3.35;1.40;;;30.40;42.90;;;;;;5047467;28;20465;-69
2023/07/15 10:11:04;;;;;;;2.75;1.40;;;30.40;42.90;;;;;;5052178;28;20033;-70
2023/07/15 10:13:30;;;;;;;2.03;1.20;;;30.10;43.40;;;;;;5051035;28;20061;-70
2023/07/15 10:15:56;;;;;;;2.95;1.45;;;30.00;43.70;;;;;;5040882;28;20099;-67
2023/07/15 10:18:22;;;;;;;1.73;1.20;;;29.90;43.90;;;;;;5041657;28;20095;-67
2023/07/15 10:21:02;;;;;;;2.67;1.50;;;29.60;43.60;;;;;;5047898;28;20047;-71
2023/07/15 10:23:31;;;;;;;2.38;1.40;;;29.40;43.20;;;;;;5029196;28;20038;-69
2023/07/15 10:26:07;;;;;;;2.63;1.25;;;29.60;43.70;;;;;;5032038;28;20026;-71
2023/07/15 10:28:41;;;;;;;4.03;1.20;;;29.50;42.90;;;;;;5036445;28;20041;-70
2023/07/15 10:31:14;;;;;;;5.75;1.45;;;29.20;44.00;;;;;;5011369;28;20049;-69
2023/07/15 10:34:02;;;;;;;2.45;1.20;;;28.90;44.00;;;;;;5014103;28;20075;-70
2023/07/15 10:36:34;;;;;;;2.10;1.25;;;28.60;45.00;;;;;;5035741;28;20092;-69
2023/07/15 10:39:16;;;;;;;5.00;1.50;;;28.20;45.60;;;;;;5045255;28;20539;-70
2023/07/15 10:41:48;;;;;;;1.55;1.00;;;28.10;46.20;;;;;;5032019;28;20097;-70
2023/07/15 10:44:21;;;;;;;2.65;1.38;;;27.90;46.40;;;;;;5040253;28;20557;-70
2023/07/15 10:46:59;;;;;;;2.88;1.15;;;27.80;46.10;;;;;;5028271;28;20112;-68
2023/07/15 10:49:25;;;;;;;1.80;1.05;;;27.80;46.20;;;;;;5060895;28;20049;-70
2023/07/15 10:52:02;;;;;;;1.60;1.17;;;27.40;45.90;;;;;;5044953;28;20143;-69
2023/07/15 10:54:32;;;;;;;2.45;1.17;;;27.40;46.70;;;;;;5031931;28;20045;-69
2023/07/15 10:57:10;;;;;;;3.00;1.38;;;27.40;46.50;;;;;;5039290;28;20110;-70
2023/07/15 10:59:39;;;;;;;2.35;1.20;;;27.20;47.60;;;;;;5028560;28;20053;-69
2023/07/15 11:02:06;;;;;;;2.93;1.30;;;27.10;47.50;;;;;;5032045;28;20461;-69
2023/07/15 11:04:32;;;;;;;2.33;1.40;;;27.50;47.70;;;;;;5044790;28;20051;-67
2023/07/15 11:07:04;;;;;;;2.65;1.38;;;27.50;48.00;;;;;;5029082;28;20045;-70
2023/07/15 11:09:31;;;;;;;1.65;1.35;;;27.70;48.60;;;;;;5032732;28;20045;-70
2023/07/15 11:11:57;;;;;;;2.42;1.40;;;27.60;47.70;;;;;;5031868;28;20128;-69
2023/07/15 11:14:23;;;;;;;2.85;1.60;;;27.60;48.10;;;;;;5041281;28;20082;-69
2023/07/15 11:16:50;;;;;;;4.50;1.60;;;27.50;48.10;;;;;;5032953;28;20044;-67
2023/07/15 11:19:16;;;;;;;2.47;1.40;;;27.60;48.00;;;;;;5042680;28;20075;-68
2023/07/15 11:21:45;;;;;;;1.67;1.40;;;27.90;47.60;;;;;;5030812;28;20072;-71
2023/07/15 11:24:12;;;;;;;3.22;1.48;;;27.90;47.50;;;;;;5047220;28;20123;-67
2023/07/15 11:26:39;;;;;;;2.53;1.40;;;27.70;47.70;;;;;;5035230;28;20056;-66
2023/07/15 11:29:15;;;;;;;1.90;1.20;;;27.70;48.20;;;;;;5037649;28;20095;-70
2023/07/15 11:31:47;;;;;;;4.72;1.30;;;27.90;48.00;;;;;;5031912;28;20033;-68
2023/07/15 11:34:18;;;;;;;1.90;1.17;;;27.60;48.20;;;;;;5030252;28;20036;-71
2023/07/15 11:36:44;;;;;;;6.32;1.80;;;27.30;48.40;;;;;;5023409;28;20830;-66
2023/07/15 11:39:11;;;;;;;9.10;1.65;;;27.40;49.60;;;;;;5032825;28;20140;-68
2023/07/15 11:41:37;;;;;;;5.15;1.85;;;27.50;47.90;;;;;;5036164;28;20122;-66
2023/07/15 11:44:12;;;;;;;3.47;1.50;;;27.40;48.00;;;;;;5035485;28;20037;-66
2023/07/15 11:46:39;;;;;;;2.28;1.50;;;27.30;48.20;;;;;;5033117;28;20080;-69
2023/07/15 11:49:06;;;;;;;7.13;2.05;;;27.10;48.90;;;;;;5029575;28;20081;-67
2023/07/15 11:51:35;;;;;;;3.13;1.70;;;26.70;49.50;;;;;;5057517;28;20121;-68
2023/07/15 11:54:01;;;;;;;1.70;1.48;;;26.90;49.80;;;;;;5044969;28;20505;-69
2023/07/15 11:56:34;;;;;;;3.58;1.75;;;26.70;50.10;;;;;;5044732;28;20179;-69
2023/07/15 11:58:59;;;;;;;2.10;1.60;;;26.30;51.30;;;;;;5045990;28;20033;-70
2023/07/15 12:01:26;;;;;;;5.05;1.90;;;26.20;51.40;;;;;;5035275;28;20409;-69
2023/07/15 12:03:53;;;;;;;3.03;1.50;;;25.80;52.50;;;;;;5033385;28;20042;-69
2023/07/15 12:06:22;;;;;;;2.58;1.70;;;25.60;52.90;;;;;;5039115;28;20033;-69
2023/07/15 12:09:02;;;;;;;3.28;1.52;;;25.60;53.40;;;;;;5019817;28;20131;-69
2023/07/15 12:11:28;;;;;;;2.22;1.33;;;25.40;56.40;;;;;;5023990;28;21642;-65
2023/07/15 12:13:54;;;;;;;2.63;1.52;;;24.90;56.00;;;;;;5028411;28;20037;-65
2023/07/15 12:16:24;;;;;;;2.90;1.63;;;24.80;57.40;;;;;;5039497;28;20489;-67
2023/07/15 12:18:49;;;;;;;3.72;1.70;;;25.00;57.50;;;;;;5049417;28;20084;-66
2023/07/15 12:21:15;;;;;;;2.58;1.67;;;25.20;56.10;;;;;;5044257;28;20114;-69
2023/07/15 12:23:43;;;;;;;60.17;8.18;;;25.40;54.80;;;;;;5036142;28;20203;-66
2023/07/15 12:26:08;;;;;;;5.78;2.08;;;25.80;53.70;;;;;;5042710;28;20120;-68
2023/07/15 12:28:34;;;;;;;2.05;1.55;;;25.80;53.50;;;;;;5047005;28;20179;-68
2023/07/15 12:31:01;;;;;;;2.95;1.67;;;26.40;52.90;;;;;;5044131;28;20052;-67
2023/07/15 12:33:26;;;;;;;3.30;1.60;;;27.20;51.90;;;;;;5027820;28;20045;-69
2023/07/15 12:35:52;;;;;;;2.22;1.50;;;28.10;48.30;;;;;;5039057;28;20414;-68
2023/07/15 12:38:17;;;;;;;15.05;3.08;;;27.50;49.10;;;;;;5049911;28;20033;-66
2023/07/15 12:40:43;;;;;;;7.70;2.28;;;27.70;49.20;;;;;;5045002;28;20065;-66
2023/07/15 12:43:09;;;;;;;5.97;1.77;;;27.10;49.20;;;;;;5042054;28;20051;-69
2023/07/15 12:45:34;;;;;;;7.10;1.70;;;27.10;48.50;;;;;;5045437;28;20080;-69